createdAt,value
2018-10-18T00:02:11.117Z,13.20
2018-10-18T00:04:39.085Z,13.20
2018-10-18T00:07:07.046Z,13.20
2018-10-18T00:09:34.821Z,13.10
2018-10-18T00:12:02.721Z,13.10
2018-10-18T00:14:30.549Z,13.10
2018-10-18T00:16:58.341Z,13.10
2018-10-18T00:19:26.142Z,13.10
2018-10-18T00:21:53.922Z,13.10
2018-10-18T00:24:21.757Z,13.10
2018-10-18T00:26:49.558Z,13.20
2018-10-18T00:29:17.335Z,13.20
2018-10-18T00:31:45.149Z,13.20
2018-10-18T00:34:13.002Z,13.20
2018-10-18T00:36:40.954Z,13.20
2018-10-18T00:39:11.233Z,13.20
2018-10-18T00:41:39.021Z,13.20
2018-10-18T00:44:07.537Z,13.20
2018-10-18T00:46:35.261Z,13.20
2018-10-18T00:49:03.093Z,13.20
2018-10-18T00:51:30.866Z,13.30
2018-10-18T00:53:58.647Z,13.30
2018-10-18T00:56:26.478Z,13.40
2018-10-18T00:58:54.237Z,13.40
2018-10-18T01:01:22.009Z,13.40
2018-10-18T01:03:50.969Z,13.30
2018-10-18T01:06:18.879Z,13.20
2018-10-18T01:08:46.778Z,13.10
2018-10-18T01:11:14.617Z,13.00
2018-10-18T01:13:42.477Z,13.00
2018-10-18T01:16:10.303Z,13.00
2018-10-18T01:18:38.109Z,12.90
2018-10-18T01:21:05.937Z,12.90
2018-10-18T01:23:33.728Z,12.90
2018-10-18T01:26:01.840Z,12.80
2018-10-18T01:28:29.813Z,12.80
2018-10-18T01:30:57.613Z,12.70
2018-10-18T01:33:25.409Z,12.80
2018-10-18T01:35:53.214Z,12.80
2018-10-18T01:38:20.998Z,12.80
2018-10-18T01:40:49.870Z,12.80
2018-10-18T01:43:17.768Z,12.70
2018-10-18T01:45:45.601Z,12.70
2018-10-18T01:48:13.422Z,12.70
2018-10-18T01:50:41.473Z,12.60
2018-10-18T01:53:09.471Z,12.60
2018-10-18T01:55:37.419Z,12.60
2018-10-18T01:58:05.477Z,12.60
2018-10-18T02:00:33.273Z,12.60
2018-10-18T02:03:01.036Z,12.60
2018-10-18T02:05:28.837Z,12.60
2018-10-18T02:07:56.664Z,12.60
2018-10-18T02:10:24.462Z,12.50
2018-10-18T02:12:52.226Z,12.50
2018-10-18T02:15:20.205Z,12.40
2018-10-18T02:17:48.059Z,12.50
2018-10-18T02:20:15.834Z,12.20
2018-10-18T02:22:43.625Z,12.40
2018-10-18T02:25:11.592Z,12.50
2018-10-18T02:27:39.488Z,12.70
2018-10-18T02:30:07.515Z,12.60
2018-10-18T02:32:35.209Z,12.50
2018-10-18T02:35:03.188Z,12.50
2018-10-18T02:37:30.974Z,12.50
2018-10-18T02:39:58.781Z,12.50
2018-10-18T02:42:26.573Z,12.40
2018-10-18T02:44:54.382Z,12.40
2018-10-18T02:47:22.170Z,12.50
2018-10-18T02:49:49.950Z,12.50
2018-10-18T02:52:17.813Z,12.50
2018-10-18T02:54:45.623Z,12.50
2018-10-18T02:57:13.502Z,12.40
2018-10-18T02:59:41.505Z,12.40
2018-10-18T03:02:09.954Z,12.40
2018-10-18T03:04:37.977Z,12.40
2018-10-18T03:07:05.872Z,12.50
2018-10-18T03:09:33.669Z,12.40
2018-10-18T03:12:01.487Z,12.40
2018-10-18T03:14:29.418Z,12.40
2018-10-18T03:16:57.234Z,12.30
2018-10-18T03:19:25.085Z,12.40
2018-10-18T03:21:52.876Z,12.30
2018-10-18T03:24:20.663Z,12.40
2018-10-18T03:26:48.525Z,12.30
2018-10-18T03:29:16.334Z,12.30
2018-10-18T03:31:44.152Z,12.30
2018-10-18T03:34:11.981Z,12.30
2018-10-18T03:36:39.872Z,12.30
2018-10-18T03:39:08.979Z,12.30
2018-10-18T03:41:36.928Z,12.30
2018-10-18T03:44:05.177Z,12.20
2018-10-18T03:46:33.005Z,12.20
2018-10-18T03:49:01.368Z,12.20
2018-10-18T03:51:29.154Z,12.10
2018-10-18T03:53:57.009Z,12.10
2018-10-18T03:56:24.800Z,12.10
2018-10-18T03:58:52.568Z,12.10
2018-10-18T04:01:20.441Z,12.00
2018-10-18T04:03:48.234Z,12.00
2018-10-18T04:06:16.893Z,11.90
2018-10-18T04:08:44.695Z,11.90
2018-10-18T04:11:12.645Z,11.90
2018-10-18T04:13:40.510Z,11.70
2018-10-18T04:16:08.361Z,11.90
2018-10-18T04:18:36.267Z,11.80
2018-10-18T04:21:04.053Z,11.90
2018-10-18T04:23:32.895Z,11.80
2018-10-18T04:26:01.541Z,11.80
2018-10-18T04:28:29.692Z,11.80
2018-10-18T04:30:57.481Z,11.80
2018-10-18T04:33:25.274Z,11.70
2018-10-18T04:35:53.203Z,11.70
2018-10-18T04:38:20.970Z,11.70
2018-10-18T04:40:49.067Z,11.60
2018-10-18T04:43:16.834Z,11.60
2018-10-18T04:45:44.672Z,11.60
2018-10-18T04:48:12.881Z,11.60
2018-10-18T04:50:40.929Z,11.60
2018-10-18T04:53:08.821Z,11.60
2018-10-18T04:55:36.626Z,11.50
2018-10-18T04:58:04.839Z,11.50
2018-10-18T05:00:32.641Z,11.50
2018-10-18T05:03:00.488Z,11.50
2018-10-18T05:05:39.480Z,11.50
2018-10-18T05:08:07.405Z,11.40
2018-10-18T05:10:35.206Z,11.40
2018-10-18T05:13:03.089Z,11.40
2018-10-18T05:15:30.833Z,11.40
2018-10-18T05:17:58.673Z,11.40
2018-10-18T05:20:26.482Z,11.40
2018-10-18T05:22:57.493Z,11.40
2018-10-18T05:25:25.322Z,11.40
2018-10-18T05:27:53.123Z,11.00
2018-10-18T05:30:21.041Z,11.40
2018-10-18T05:32:48.965Z,11.30
2018-10-18T05:35:16.729Z,11.30
2018-10-18T05:37:44.647Z,11.30
2018-10-18T05:40:12.685Z,11.20
2018-10-18T05:42:40.629Z,11.20
2018-10-18T05:45:08.615Z,11.20
2018-10-18T05:47:36.401Z,11.20
2018-10-18T05:50:05.316Z,11.20
2018-10-18T05:52:33.161Z,11.20
2018-10-18T05:55:01.015Z,11.20
2018-10-18T05:57:28.877Z,11.20
2018-10-18T05:59:56.754Z,11.20
2018-10-18T06:02:24.687Z,11.20
2018-10-18T06:04:52.562Z,11.30
2018-10-18T06:07:20.412Z,11.30
2018-10-18T06:09:48.304Z,11.30
2018-10-18T06:12:16.213Z,11.30
2018-10-18T06:14:44.188Z,11.30
2018-10-18T06:17:12.426Z,11.30
2018-10-18T06:19:40.418Z,11.40
2018-10-18T06:22:08.542Z,11.40
2018-10-18T06:24:36.486Z,11.40
2018-10-18T06:27:04.378Z,11.50
2018-10-18T06:29:32.237Z,11.50
2018-10-18T06:32:00.130Z,11.60
2018-10-18T06:34:28.018Z,11.60
2018-10-18T06:36:55.905Z,11.70
2018-10-18T06:39:24.555Z,11.70
2018-10-18T06:41:52.372Z,11.80
2018-10-18T06:44:20.246Z,11.80
2018-10-18T06:46:48.143Z,11.80
2018-10-18T06:49:16.074Z,11.90
2018-10-18T06:51:44.072Z,11.90
2018-10-18T06:54:12.145Z,11.90
2018-10-18T06:56:39.945Z,12.10
2018-10-18T06:59:07.878Z,12.20
2018-10-18T07:01:35.766Z,12.30
2018-10-18T07:04:03.844Z,12.30
2018-10-18T07:06:31.698Z,12.30
2018-10-18T07:08:59.645Z,12.30
2018-10-18T07:11:28.769Z,12.40
2018-10-18T07:13:56.667Z,12.40
2018-10-18T07:16:24.552Z,12.50
2018-10-18T07:18:52.509Z,12.60
2018-10-18T07:21:20.403Z,12.60
2018-10-18T07:23:48.255Z,12.70
2018-10-18T07:26:16.137Z,12.80
2018-10-18T07:28:44.044Z,13.00
2018-10-18T07:31:12.271Z,13.10
2018-10-18T07:33:40.220Z,13.30
2018-10-18T07:36:08.170Z,13.40
2018-10-18T07:38:35.937Z,13.50
2018-10-18T07:41:04.037Z,13.60
2018-10-18T07:43:31.941Z,13.70
2018-10-18T07:45:59.865Z,13.70
2018-10-18T07:48:27.971Z,13.90
2018-10-18T07:50:55.830Z,14.00
2018-10-18T07:53:23.767Z,14.10
2018-10-18T07:55:51.656Z,14.40
2018-10-18T07:58:19.492Z,14.70
2018-10-18T08:00:47.500Z,15.20
2018-10-18T08:03:15.281Z,15.40
2018-10-18T08:05:43.189Z,15.60
2018-10-18T08:08:11.172Z,15.70
2018-10-18T08:10:39.024Z,15.90
2018-10-18T08:13:07.002Z,16.00
2018-10-18T08:15:34.768Z,16.20
2018-10-18T08:18:02.656Z,16.40
2018-10-18T08:20:30.528Z,16.70
2018-10-18T08:22:58.378Z,16.90
2018-10-18T08:25:26.445Z,17.20
2018-10-18T08:27:54.309Z,17.40
2018-10-18T08:30:22.190Z,17.70
2018-10-18T08:32:50.062Z,18.00
2018-10-18T08:35:17.921Z,18.30
2018-10-18T08:37:46.035Z,18.40
2018-10-18T08:40:15.205Z,18.70
2018-10-18T08:42:43.170Z,18.90
2018-10-18T08:45:11.672Z,19.10
2018-10-18T08:47:39.733Z,19.40
2018-10-18T08:50:09.382Z,19.60
2018-10-18T08:52:37.393Z,19.80
2018-10-18T08:55:06.837Z,20.20
2018-10-18T08:57:34.665Z,20.50
2018-10-18T09:00:02.534Z,20.80
2018-10-18T09:02:30.400Z,21.10
2018-10-18T09:04:58.277Z,21.40
2018-10-18T09:07:26.117Z,21.70
2018-10-18T09:09:53.981Z,22.10
2018-10-18T09:12:21.848Z,22.40
2018-10-18T09:14:49.757Z,22.60
2018-10-18T09:17:17.624Z,22.90
2018-10-18T09:19:45.569Z,23.20
2018-10-18T09:22:13.745Z,23.50
2018-10-18T09:24:41.677Z,23.70
2018-10-18T09:27:09.572Z,23.80
2018-10-18T09:29:37.437Z,24.00
2018-10-18T09:32:05.425Z,24.10
2018-10-18T09:34:33.285Z,24.20
2018-10-18T09:37:01.177Z,24.30
2018-10-18T09:39:29.053Z,24.30
2018-10-18T09:41:58.741Z,24.30
2018-10-18T09:44:26.712Z,24.40
2018-10-18T09:46:54.541Z,24.40
2018-10-18T09:49:22.383Z,24.40
2018-10-18T09:51:50.260Z,24.40
2018-10-18T09:54:18.148Z,24.40
2018-10-18T09:56:46.088Z,24.40
2018-10-18T09:59:14.245Z,24.50
2018-10-18T10:01:48.092Z,24.60
2018-10-18T10:04:16.073Z,24.70
2018-10-18T10:06:44.069Z,24.90
2018-10-18T10:09:11.946Z,25.00
2018-10-18T10:11:39.909Z,25.00
2018-10-18T10:14:07.722Z,25.10
2018-10-18T10:16:35.569Z,25.10
2018-10-18T10:19:03.495Z,25.30
2018-10-18T10:21:31.366Z,25.40
2018-10-18T10:23:59.226Z,25.50
2018-10-18T10:26:27.086Z,25.60
2018-10-18T10:28:55.764Z,25.60
2018-10-18T10:31:23.660Z,25.50
2018-10-18T10:33:51.525Z,25.60
2018-10-18T10:36:19.440Z,25.70
2018-10-18T10:38:47.364Z,25.70
2018-10-18T10:41:15.281Z,25.70
2018-10-18T10:43:43.290Z,25.90
2018-10-18T10:46:11.220Z,25.90
2018-10-18T10:48:39.038Z,25.80
2018-10-18T10:51:06.999Z,25.80
2018-10-18T10:53:34.817Z,25.90
2018-10-18T10:56:02.805Z,25.90
2018-10-18T10:58:30.589Z,25.90
2018-10-18T11:01:10.316Z,26.10
2018-10-18T11:03:39.183Z,26.20
2018-10-18T11:06:07.101Z,26.20
2018-10-18T11:08:35.150Z,26.20
2018-10-18T11:11:03.044Z,26.10
2018-10-18T11:13:30.957Z,26.00
2018-10-18T11:16:00.285Z,25.90
2018-10-18T11:18:28.246Z,25.90
2018-10-18T11:20:56.172Z,26.00
2018-10-18T11:23:23.968Z,26.10
2018-10-18T11:25:52.105Z,26.30
2018-10-18T11:28:19.997Z,26.50
2018-10-18T11:30:47.897Z,26.70
2018-10-18T11:33:15.838Z,26.70
2018-10-18T11:35:44.454Z,27.00
2018-10-18T11:38:13.555Z,27.20
2018-10-18T11:40:41.549Z,27.50
2018-10-18T11:43:10.162Z,27.70
2018-10-18T11:45:39.021Z,27.90
2018-10-18T11:48:07.846Z,28.30
2018-10-18T11:50:35.633Z,28.50
2018-10-18T11:53:03.521Z,28.70
2018-10-18T11:55:31.444Z,28.90
2018-10-18T11:57:59.373Z,29.10
2018-10-18T12:00:27.280Z,29.30
2018-10-18T12:02:55.157Z,29.30
2018-10-18T12:05:23.078Z,29.30
2018-10-18T12:07:50.967Z,29.30
2018-10-18T12:10:18.856Z,29.40
2018-10-18T12:12:46.926Z,29.50
2018-10-18T12:15:15.149Z,29.60
2018-10-18T12:17:43.046Z,29.80
2018-10-18T12:20:14.318Z,29.90
2018-10-18T12:22:42.265Z,30.10
2018-10-18T12:25:10.751Z,30.30
2018-10-18T12:27:38.773Z,30.50
2018-10-18T12:30:07.350Z,30.80
2018-10-18T12:32:35.505Z,31.10
2018-10-18T12:35:03.523Z,31.40
2018-10-18T12:37:31.377Z,31.70
2018-10-18T12:39:59.392Z,31.80
2018-10-18T12:42:27.317Z,31.80
2018-10-18T12:44:55.204Z,31.80
2018-10-18T12:47:23.068Z,31.70
2018-10-18T12:49:50.952Z,31.70
2018-10-18T12:52:18.854Z,31.50
2018-10-18T12:54:46.854Z,31.50
2018-10-18T12:57:15.083Z,31.40
2018-10-18T12:59:43.049Z,31.30
2018-10-18T13:02:10.995Z,31.30
2018-10-18T13:04:38.800Z,31.40
2018-10-18T13:07:06.757Z,31.50
2018-10-18T13:09:34.650Z,31.60
2018-10-18T13:12:02.597Z,31.70
2018-10-18T13:14:30.782Z,31.80
2018-10-18T13:16:58.655Z,32.00
2018-10-18T13:19:26.717Z,32.10
2018-10-18T13:21:54.620Z,32.10
2018-10-18T13:24:22.650Z,32.10
2018-10-18T13:26:50.753Z,32.00
2018-10-18T13:29:18.645Z,32.00
2018-10-18T13:31:46.880Z,31.90
2018-10-18T13:34:14.997Z,31.70
2018-10-18T13:36:42.867Z,31.50
2018-10-18T13:39:14.525Z,31.40
2018-10-18T13:41:42.408Z,31.20
2018-10-18T13:44:10.317Z,31.00
2018-10-18T13:46:38.718Z,30.80
2018-10-18T13:49:06.816Z,30.70
2018-10-18T13:51:35.216Z,30.60
2018-10-18T13:54:03.214Z,30.50
2018-10-18T13:56:31.062Z,30.40
2018-10-18T13:58:58.954Z,30.30
2018-10-18T14:01:27.245Z,30.20
2018-10-18T14:03:55.181Z,30.20
2018-10-18T14:06:23.151Z,30.00
2018-10-18T14:08:51.026Z,29.80
2018-10-18T14:11:19.004Z,29.70
2018-10-18T14:13:46.925Z,29.50
2018-10-18T14:16:15.209Z,29.30
2018-10-18T14:18:43.152Z,29.10
2018-10-18T14:21:11.063Z,28.90
2018-10-18T14:23:38.953Z,28.80
2018-10-18T14:26:06.940Z,28.60
2018-10-18T14:28:34.779Z,28.40
2018-10-18T14:31:02.632Z,28.30
2018-10-18T14:33:30.519Z,28.00
2018-10-18T14:35:58.393Z,27.80
2018-10-18T14:38:26.283Z,27.70
2018-10-18T14:40:54.173Z,27.50
2018-10-18T14:43:22.043Z,27.40
2018-10-18T14:45:49.984Z,27.30
2018-10-18T14:48:17.949Z,27.10
2018-10-18T14:50:46.478Z,27.00
2018-10-18T14:53:14.397Z,26.90
2018-10-18T14:55:42.306Z,26.80
2018-10-18T14:58:10.187Z,26.70
2018-10-18T15:00:38.253Z,26.60
2018-10-18T15:03:06.143Z,26.40
2018-10-18T15:05:34.025Z,26.30
2018-10-18T15:08:01.940Z,26.10
2018-10-18T15:10:29.893Z,25.90
2018-10-18T15:12:57.758Z,25.70
2018-10-18T15:15:25.661Z,25.50
2018-10-18T15:17:53.549Z,25.30
2018-10-18T15:20:21.456Z,25.10
2018-10-18T15:22:49.361Z,24.80
2018-10-18T15:25:17.441Z,24.50
2018-10-18T15:27:45.618Z,24.20
2018-10-18T15:30:13.437Z,23.90
2018-10-18T15:32:41.351Z,23.60
2018-10-18T15:35:10.363Z,23.30
2018-10-18T15:37:38.521Z,23.00
2018-10-18T15:40:06.779Z,22.70
2018-10-18T15:42:34.857Z,22.40
2018-10-18T15:45:02.825Z,22.20
2018-10-18T15:47:30.692Z,21.90
2018-10-18T15:49:58.474Z,21.70
2018-10-18T15:52:26.369Z,21.50
2018-10-18T15:54:54.229Z,21.20
2018-10-18T15:57:23.229Z,21.00
2018-10-18T15:59:51.097Z,20.80
2018-10-18T16:02:19.069Z,20.70
2018-10-18T16:04:47.313Z,20.50
2018-10-18T16:07:15.412Z,20.30
2018-10-18T16:09:43.309Z,20.20
2018-10-18T16:12:11.216Z,20.00
2018-10-18T16:14:39.081Z,19.80
2018-10-18T16:17:07.008Z,19.70
2018-10-18T16:19:34.906Z,19.50
2018-10-18T16:22:02.781Z,19.30
2018-10-18T16:24:30.629Z,19.10
2018-10-18T16:26:58.659Z,19.00
2018-10-18T16:29:26.565Z,18.80
2018-10-18T16:31:54.452Z,18.60
2018-10-18T16:34:22.329Z,18.40
2018-10-18T16:36:50.189Z,18.30
2018-10-18T16:39:18.188Z,18.20
2018-10-18T16:41:46.334Z,18.10
2018-10-18T16:44:14.247Z,17.90
2018-10-18T16:46:42.124Z,17.80
2018-10-18T16:49:09.996Z,17.70
2018-10-18T16:51:37.931Z,17.50
2018-10-18T16:54:06.150Z,17.40
2018-10-18T16:56:34.076Z,17.30
2018-10-18T16:59:02.205Z,17.20
2018-10-18T17:01:30.230Z,17.10
2018-10-18T17:03:58.640Z,17.00
2018-10-18T17:06:26.567Z,16.90
2018-10-18T17:08:54.458Z,16.80
2018-10-18T17:11:22.470Z,16.70
2018-10-18T17:13:50.340Z,16.60
2018-10-18T17:16:19.159Z,16.50
2018-10-18T17:18:47.123Z,16.40
2018-10-18T17:21:15.180Z,16.40
2018-10-18T17:23:43.005Z,16.30
2018-10-18T17:26:11.001Z,16.20
2018-10-18T17:28:38.846Z,16.10
2018-10-18T17:31:06.754Z,16.00
2018-10-18T17:33:34.695Z,15.90
2018-10-18T17:36:02.614Z,15.90
2018-10-18T17:38:30.789Z,15.80
2018-10-18T17:41:01.220Z,15.80
2018-10-18T17:43:29.335Z,15.70
2018-10-18T17:45:57.243Z,15.60
2018-10-18T17:48:25.118Z,15.60
2018-10-18T17:50:53.069Z,15.50
2018-10-18T17:53:20.957Z,15.50
2018-10-18T17:55:48.981Z,15.40
2018-10-18T17:58:17.155Z,15.40
2018-10-18T18:00:45.089Z,15.30
2018-10-18T18:03:12.952Z,15.30
2018-10-18T18:05:40.982Z,15.30
2018-10-18T18:08:08.986Z,15.30
2018-10-18T18:10:36.904Z,15.20
2018-10-18T18:13:04.975Z,15.10
2018-10-18T18:15:32.835Z,15.00
2018-10-18T18:18:00.903Z,15.00
2018-10-18T18:20:28.996Z,15.00
2018-10-18T18:22:56.881Z,14.90
2018-10-18T18:25:24.781Z,14.80
2018-10-18T18:27:52.597Z,14.80
2018-10-18T18:30:20.383Z,14.80
2018-10-18T18:32:48.292Z,14.70
2018-10-18T18:35:16.237Z,14.70
2018-10-18T18:37:44.028Z,14.60
2018-10-18T18:40:11.805Z,14.60
2018-10-18T18:42:40.109Z,14.60
2018-10-18T18:45:13.689Z,14.60
2018-10-18T18:47:41.673Z,14.60
2018-10-18T18:50:09.775Z,14.70
2018-10-18T18:52:37.611Z,14.60
2018-10-18T18:55:06.077Z,14.40
2018-10-18T18:57:33.849Z,14.40
2018-10-18T19:00:01.667Z,14.50
2018-10-18T19:02:29.468Z,14.40
2018-10-18T19:04:57.262Z,14.30
2018-10-18T19:07:25.063Z,14.30
2018-10-18T19:09:52.896Z,14.20
2018-10-18T19:12:20.765Z,14.10
2018-10-18T19:14:48.734Z,14.10
2018-10-18T19:17:16.657Z,14.00
2018-10-18T19:19:44.488Z,14.00
2018-10-18T19:22:12.456Z,14.00
2018-10-18T19:24:40.432Z,14.00
2018-10-18T19:27:08.461Z,14.00
2018-10-18T19:29:36.285Z,14.00
2018-10-18T19:32:04.413Z,13.90
2018-10-18T19:34:32.317Z,13.90
2018-10-18T19:37:00.162Z,13.90
2018-10-18T19:39:28.785Z,13.80
2018-10-18T19:41:56.581Z,13.80
2018-10-18T19:44:24.377Z,13.80
2018-10-18T19:46:52.173Z,13.80
2018-10-18T19:49:20.033Z,13.70
2018-10-18T19:51:48.309Z,13.70
2018-10-18T19:54:16.205Z,13.70
2018-10-18T19:56:44.177Z,13.80
2018-10-18T19:59:12.110Z,13.80
2018-10-18T20:01:39.990Z,13.80
2018-10-18T20:04:07.915Z,13.70
2018-10-18T20:06:35.847Z,13.70
2018-10-18T20:09:05.801Z,13.60
2018-10-18T20:11:33.668Z,13.60
2018-10-18T20:14:01.569Z,13.50
2018-10-18T20:16:29.485Z,13.50
2018-10-18T20:18:57.419Z,13.40
2018-10-18T20:21:25.367Z,13.40
2018-10-18T20:23:53.336Z,13.40
2018-10-18T20:26:21.464Z,13.40
2018-10-18T20:28:49.342Z,13.40
2018-10-18T20:31:17.600Z,13.10
2018-10-18T20:33:45.491Z,13.30
2018-10-18T20:36:13.307Z,13.20
2018-10-18T20:38:41.204Z,13.20
2018-10-18T20:41:09.212Z,13.10
2018-10-18T20:43:37.078Z,13.20
2018-10-18T20:46:05.161Z,13.20
2018-10-18T20:48:33.133Z,13.10
2018-10-18T20:51:01.207Z,13.10
2018-10-18T20:53:29.066Z,13.00
2018-10-18T20:55:56.921Z,13.00
2018-10-18T20:58:24.768Z,13.10
2018-10-18T21:00:52.526Z,13.00
2018-10-18T21:03:20.354Z,13.00
2018-10-18T21:05:48.440Z,13.00
2018-10-18T21:08:16.356Z,12.90
2018-10-18T21:10:44.169Z,12.90
2018-10-18T21:13:11.990Z,12.90
2018-10-18T21:15:39.777Z,12.80
2018-10-18T21:18:07.608Z,12.80
2018-10-18T21:20:35.445Z,12.80
2018-10-18T21:23:03.286Z,12.80
2018-10-18T21:25:32.955Z,12.70
2018-10-18T21:28:00.797Z,12.70
2018-10-18T21:30:28.577Z,12.80
2018-10-18T21:32:56.434Z,12.80
2018-10-18T21:35:24.288Z,12.80
2018-10-18T21:37:52.097Z,12.80
2018-10-18T21:40:19.960Z,13.10
2018-10-18T21:42:48.037Z,13.10
2018-10-18T21:45:16.474Z,13.10
2018-10-18T21:47:44.336Z,13.00
2018-10-18T21:50:12.132Z,12.90
2018-10-18T21:52:39.978Z,12.90
2018-10-18T21:55:07.850Z,12.90
2018-10-18T21:57:41.621Z,12.90
2018-10-18T22:00:13.869Z,12.90
2018-10-18T22:02:42.740Z,12.90
2018-10-18T22:05:11.052Z,12.80
2018-10-18T22:07:39.037Z,12.80
2018-10-18T22:10:07.017Z,12.80
2018-10-18T22:12:35.081Z,12.70
2018-10-18T22:15:03.063Z,12.70
2018-10-18T22:17:30.864Z,12.60
2018-10-18T22:19:58.660Z,12.60
2018-10-18T22:22:26.496Z,12.50
2018-10-18T22:24:54.317Z,12.50
2018-10-18T22:27:22.125Z,12.50
2018-10-18T22:29:50.900Z,12.50
2018-10-18T22:32:18.837Z,12.50
2018-10-18T22:34:46.733Z,12.50
2018-10-18T22:37:14.548Z,12.40
2018-10-18T22:39:42.390Z,12.40
2018-10-18T22:42:10.220Z,12.40
2018-10-18T22:44:38.000Z,12.40
2018-10-18T22:47:05.870Z,12.50
2018-10-18T22:49:33.601Z,12.40
2018-10-18T22:52:01.353Z,12.50
2018-10-18T22:54:29.381Z,12.50
2018-10-18T22:56:57.181Z,12.40
2018-10-18T22:59:25.515Z,12.40
2018-10-18T23:01:53.305Z,12.30
2018-10-18T23:04:21.065Z,12.30
2018-10-18T23:06:49.058Z,12.30
2018-10-18T23:09:17.489Z,12.30
2018-10-18T23:11:45.165Z,12.20
2018-10-18T23:14:12.957Z,12.20
2018-10-18T23:16:40.867Z,12.10
2018-10-18T23:19:09.474Z,12.10
2018-10-18T23:21:37.383Z,12.10
2018-10-18T23:24:05.557Z,12.10
2018-10-18T23:26:33.353Z,12.10
2018-10-18T23:29:01.212Z,12.00
2018-10-18T23:31:29.009Z,12.00
2018-10-18T23:33:56.849Z,11.90
2018-10-18T23:36:24.665Z,11.90
2018-10-18T23:38:52.482Z,11.90
2018-10-18T23:41:20.418Z,11.80
2018-10-18T23:43:48.257Z,11.80
2018-10-18T23:46:16.016Z,11.80
2018-10-18T23:48:43.853Z,11.70
2018-10-18T23:51:11.873Z,11.70
2018-10-18T23:53:39.576Z,11.70
2018-10-18T23:56:07.434Z,11.60
2018-10-18T23:58:35.245Z,11.60
